createdAt,value
2019-04-27T00:00:14.708Z,4.43
2019-04-27T00:03:02.103Z,3.30
2019-04-27T00:05:43.344Z,3.30
2019-04-27T00:08:24.012Z,3.30
2019-04-27T00:11:08.668Z,3.20
2019-04-27T00:13:40.720Z,3.50
2019-04-27T00:16:33.821Z,3.47
2019-04-27T00:19:20.976Z,3.00
2019-04-27T00:22:12.980Z,3.07
2019-04-27T00:24:44.185Z,3.23
2019-04-27T00:27:13.651Z,3.00
2019-04-27T00:29:43.269Z,2.43
2019-04-27T00:32:13.227Z,3.17
2019-04-27T00:34:43.146Z,2.77
2019-04-27T00:37:44.971Z,3.60
2019-04-27T00:40:17.680Z,3.13
2019-04-27T00:42:47.020Z,2.87
2019-04-27T00:45:16.481Z,2.80
2019-04-27T00:47:56.854Z,3.03
2019-04-27T00:50:18.200Z,3.17
2019-04-27T00:52:47.501Z,2.90
2019-04-27T00:55:16.914Z,2.83
2019-04-27T00:58:20.163Z,2.43
2019-04-27T01:01:07.558Z,3.00
2019-04-27T01:04:03.788Z,2.50
2019-04-27T01:06:33.614Z,2.40
2019-04-27T01:09:03.611Z,2.80
2019-04-27T01:11:33.297Z,2.80
2019-04-27T01:14:03.858Z,2.33
2019-04-27T01:16:33.442Z,2.80
2019-04-27T01:19:02.827Z,3.17
2019-04-27T01:21:32.239Z,2.33
2019-04-27T01:24:01.611Z,3.10
2019-04-27T01:26:56.088Z,3.10
2019-04-27T01:29:26.613Z,2.83
2019-04-27T01:31:56.124Z,3.13
2019-04-27T01:34:25.816Z,2.63
2019-04-27T01:36:55.210Z,3.70
2019-04-27T01:39:24.698Z,3.50
2019-04-27T01:41:54.081Z,3.00
2019-04-27T01:44:23.505Z,3.00
2019-04-27T01:46:53.005Z,3.20
2019-04-27T01:49:22.425Z,3.50
2019-04-27T01:51:51.944Z,3.30
2019-04-27T01:54:22.956Z,3.20
2019-04-27T01:56:52.358Z,3.13
2019-04-27T01:59:21.718Z,3.30
2019-04-27T02:02:06.626Z,3.60
2019-04-27T02:04:59.368Z,2.97
2019-04-27T02:07:30.054Z,2.90
2019-04-27T02:09:59.662Z,3.33
2019-04-27T02:12:31.354Z,3.60
2019-04-27T02:15:00.160Z,3.57
2019-04-27T02:17:29.563Z,3.60
2019-04-27T02:19:59.498Z,3.20
2019-04-27T02:22:29.715Z,4.37
2019-04-27T02:24:59.182Z,3.73
2019-04-27T02:27:30.281Z,3.63
2019-04-27T02:30:17.267Z,3.60
2019-04-27T02:33:00.262Z,3.80
2019-04-27T02:35:30.098Z,3.53
2019-04-27T02:38:00.486Z,4.23
2019-04-27T02:40:59.852Z,4.00
2019-04-27T02:43:43.831Z,4.20
2019-04-27T02:46:13.209Z,4.73
2019-04-27T02:48:55.555Z,4.60
2019-04-27T02:51:15.878Z,4.30
2019-04-27T02:53:55.809Z,4.17
2019-04-27T02:56:25.210Z,4.30
2019-04-27T02:58:54.613Z,4.10
2019-04-27T03:01:26.162Z,5.13
2019-04-27T03:03:55.611Z,4.63
2019-04-27T03:06:25.049Z,4.33
2019-04-27T03:08:54.520Z,4.50
2019-04-27T03:11:24.639Z,4.47
2019-04-27T03:14:28.369Z,4.67
2019-04-27T03:17:09.750Z,5.13
2019-04-27T03:19:42.444Z,4.47
2019-04-27T03:22:20.700Z,5.30
2019-04-27T03:25:31.892Z,4.97
2019-04-27T03:28:06.206Z,5.60
2019-04-27T03:30:36.591Z,4.83
2019-04-27T03:33:06.331Z,5.07
2019-04-27T03:35:37.066Z,4.33
2019-04-27T03:38:06.712Z,4.67
2019-04-27T03:40:36.295Z,5.07
2019-04-27T03:43:13.758Z,4.70
2019-04-27T03:45:43.107Z,4.87
2019-04-27T03:48:12.340Z,4.60
2019-04-27T03:50:50.655Z,5.80
2019-04-27T03:53:42.056Z,5.47
2019-04-27T03:56:20.591Z,5.50
2019-04-27T03:58:53.015Z,5.53
2019-04-27T04:01:22.407Z,5.47
2019-04-27T04:03:51.718Z,5.50
2019-04-27T04:06:21.143Z,4.87
2019-04-27T04:08:54.913Z,5.90
2019-04-27T04:11:27.351Z,4.73
2019-04-27T04:14:01.132Z,4.90
2019-04-27T04:16:52.990Z,5.20
2019-04-27T04:19:22.448Z,4.13
2019-04-27T04:21:51.890Z,4.37
2019-04-27T04:24:21.208Z,4.47
2019-04-27T04:26:50.654Z,4.20
2019-04-27T04:29:20.456Z,3.57
2019-04-27T04:31:50.451Z,4.33
2019-04-27T04:34:20.189Z,5.30
2019-04-27T04:36:50.706Z,4.70
2019-04-27T04:39:20.113Z,5.07
2019-04-27T04:42:04.684Z,4.93
2019-04-27T04:44:46.096Z,4.60
2019-04-27T04:47:24.707Z,5.30
2019-04-27T04:50:07.414Z,4.40
2019-04-27T04:52:25.190Z,4.10
2019-04-27T04:54:54.564Z,4.27
2019-04-27T04:57:23.923Z,4.60
2019-04-27T04:59:53.317Z,4.00
2019-04-27T05:02:22.757Z,4.20
2019-04-27T05:04:52.100Z,4.77
2019-04-27T05:07:21.403Z,4.80
2019-04-27T05:09:50.701Z,4.30
2019-04-27T05:12:20.057Z,3.20
2019-04-27T05:14:49.319Z,3.33
2019-04-27T05:17:19.591Z,4.00
2019-04-27T05:19:50.694Z,4.00
2019-04-27T05:22:20.110Z,4.87
2019-04-27T05:25:00.583Z,4.00
2019-04-27T05:27:32.292Z,4.00
2019-04-27T05:30:01.877Z,4.03
2019-04-27T05:32:31.247Z,3.90
2019-04-27T05:35:00.668Z,4.23
2019-04-27T05:37:31.794Z,3.90
2019-04-27T05:40:00.988Z,5.03
2019-04-27T05:42:30.307Z,3.67
2019-04-27T05:45:22.782Z,3.97
2019-04-27T05:47:56.497Z,4.43
2019-04-27T05:50:35.533Z,4.40
2019-04-27T05:52:56.725Z,3.97
2019-04-27T05:55:26.038Z,3.93
2019-04-27T05:57:55.333Z,3.87
2019-04-27T06:00:24.619Z,4.23
2019-04-27T06:02:53.885Z,4.37
2019-04-27T06:05:23.253Z,3.70
2019-04-27T06:07:52.529Z,5.33
2019-04-27T06:10:21.827Z,4.20
2019-04-27T06:12:51.347Z,4.43
2019-04-27T06:15:20.685Z,4.50
2019-04-27T06:17:49.960Z,4.03
2019-04-27T06:20:19.240Z,5.30
2019-04-27T06:22:48.968Z,5.00
2019-04-27T06:25:21.130Z,4.97
2019-04-27T06:27:49.633Z,4.20
2019-04-27T06:30:19.342Z,4.50
2019-04-27T06:32:49.475Z,5.43
2019-04-27T06:35:18.934Z,4.77
2019-04-27T06:37:49.291Z,5.27
2019-04-27T06:40:18.827Z,5.07
2019-04-27T06:42:48.707Z,4.50
2019-04-27T06:45:19.660Z,4.63
2019-04-27T06:47:51.163Z,4.60
2019-04-27T06:50:20.131Z,4.40
2019-04-27T06:52:49.537Z,3.87
2019-04-27T06:55:18.920Z,3.37
2019-04-27T06:57:49.106Z,3.33
2019-04-27T07:00:18.978Z,3.87
2019-04-27T07:02:49.246Z,4.57
2019-04-27T07:05:20.348Z,3.87
2019-04-27T07:07:49.915Z,3.07
2019-04-27T07:10:19.217Z,3.73
2019-04-27T07:12:56.086Z,3.47
2019-04-27T07:15:25.577Z,4.03
2019-04-27T07:17:54.926Z,3.50
2019-04-27T07:20:24.307Z,4.20
2019-04-27T07:22:54.032Z,3.50
2019-04-27T07:25:23.421Z,3.53
2019-04-27T07:27:52.875Z,3.37
2019-04-27T07:30:22.266Z,3.47
2019-04-27T07:32:51.599Z,3.13
2019-04-27T07:35:21.085Z,2.80
2019-04-27T07:37:50.478Z,3.33
2019-04-27T07:40:19.857Z,3.50
2019-04-27T07:42:52.619Z,3.10
2019-04-27T07:45:27.415Z,3.43
2019-04-27T07:47:56.883Z,3.83
2019-04-27T07:50:26.246Z,2.80
2019-04-27T07:52:55.716Z,3.13
2019-04-27T07:55:25.156Z,4.30
2019-04-27T07:57:54.547Z,2.60
2019-04-27T08:00:23.919Z,3.67
2019-04-27T08:02:53.310Z,3.83
2019-04-27T08:05:22.691Z,3.70
2019-04-27T08:07:52.094Z,3.33
2019-04-27T08:10:21.525Z,3.00
2019-04-27T08:12:50.924Z,3.20
2019-04-27T08:15:20.270Z,3.73
2019-04-27T08:17:49.589Z,3.30
2019-04-27T08:20:21.030Z,3.83
2019-04-27T08:22:49.975Z,3.83
2019-04-27T08:25:19.363Z,3.30
2019-04-27T08:28:03.451Z,3.37
2019-04-27T08:30:48.897Z,3.20
2019-04-27T08:33:19.075Z,3.47
2019-04-27T08:35:49.085Z,3.50
2019-04-27T08:38:19.033Z,4.63
2019-04-27T08:40:49.560Z,3.63
2019-04-27T08:43:19.186Z,3.47
2019-04-27T08:45:48.923Z,3.57
2019-04-27T08:48:33.401Z,4.10
2019-04-27T08:50:49.475Z,5.20
2019-04-27T08:53:18.907Z,4.37
2019-04-27T08:55:49.405Z,3.87
2019-04-27T08:58:21.260Z,3.77
2019-04-27T09:00:50.459Z,4.20
2019-04-27T09:03:19.898Z,3.77
2019-04-27T09:05:50.330Z,3.37
2019-04-27T09:08:40.789Z,4.00
2019-04-27T09:11:29.012Z,3.70
2019-04-27T09:14:34.441Z,3.50
2019-04-27T09:17:19.345Z,3.63
2019-04-27T09:20:04.612Z,3.93
2019-04-27T09:22:34.034Z,3.30
2019-04-27T09:25:03.503Z,3.93
2019-04-27T09:27:33.143Z,3.27
2019-04-27T09:30:02.646Z,2.97
2019-04-27T09:32:32.194Z,3.10
2019-04-27T09:35:01.630Z,3.10
2019-04-27T09:37:31.021Z,2.63
2019-04-27T09:40:00.335Z,3.20
2019-04-27T09:42:29.687Z,3.30
2019-04-27T09:44:59.065Z,3.00
2019-04-27T09:47:28.493Z,4.07
2019-04-27T09:49:58.152Z,3.53
2019-04-27T09:52:28.697Z,2.67
2019-04-27T09:54:58.220Z,2.80
2019-04-27T09:57:27.720Z,2.70
2019-04-27T09:59:57.159Z,3.00
2019-04-27T10:02:27.029Z,3.00
2019-04-27T10:04:56.610Z,3.30
2019-04-27T10:07:26.842Z,3.27
2019-04-27T10:09:56.332Z,2.43
2019-04-27T10:12:26.913Z,2.90
2019-04-27T10:14:56.399Z,3.10
2019-04-27T10:17:25.767Z,3.13
2019-04-27T10:19:56.964Z,4.20
2019-04-27T10:22:39.906Z,2.80
2019-04-27T10:24:58.352Z,3.27
2019-04-27T10:27:28.384Z,2.77
2019-04-27T10:29:58.526Z,3.27
2019-04-27T10:32:28.017Z,2.93
2019-04-27T10:35:02.214Z,3.50
2019-04-27T10:37:31.712Z,4.20
2019-04-27T10:40:01.069Z,3.70
2019-04-27T10:42:30.463Z,4.80
2019-04-27T10:45:00.006Z,3.43
2019-04-27T10:47:29.435Z,4.43
2019-04-27T10:49:59.028Z,4.10
2019-04-27T10:52:28.460Z,3.07
2019-04-27T10:55:23.169Z,3.33
2019-04-27T10:57:55.286Z,2.93
2019-04-27T11:00:38.605Z,3.20
2019-04-27T11:03:10.895Z,3.50
2019-04-27T11:06:02.041Z,2.70
2019-04-27T11:08:31.541Z,4.23
2019-04-27T11:11:01.001Z,3.47
2019-04-27T11:13:30.463Z,3.27
2019-04-27T11:16:00.073Z,3.20
2019-04-27T11:18:29.611Z,3.57
2019-04-27T11:20:59.020Z,3.80
2019-04-27T11:23:28.678Z,4.30
2019-04-27T11:25:58.161Z,3.80
2019-04-27T11:28:27.571Z,4.07
2019-04-27T11:30:57.218Z,3.83
2019-04-27T11:33:31.476Z,2.87
2019-04-27T11:36:22.744Z,3.50
2019-04-27T11:38:52.748Z,3.93
2019-04-27T11:41:22.059Z,3.90
2019-04-27T11:43:51.656Z,3.83
2019-04-27T11:46:21.075Z,3.37
2019-04-27T11:48:50.598Z,3.13
2019-04-27T11:51:20.000Z,3.27
2019-04-27T11:53:49.365Z,4.00
2019-04-27T11:56:18.740Z,2.90
2019-04-27T11:58:48.834Z,3.60
2019-04-27T12:01:18.262Z,3.40
2019-04-27T12:03:47.724Z,3.50
2019-04-27T12:06:17.075Z,3.20
2019-04-27T12:08:46.456Z,3.77
2019-04-27T12:11:16.082Z,3.07
2019-04-27T12:13:46.080Z,3.33
2019-04-27T12:16:15.584Z,2.70
2019-04-27T12:18:48.924Z,3.50
2019-04-27T12:21:17.555Z,3.03
2019-04-27T12:23:47.292Z,3.07
2019-04-27T12:26:38.703Z,2.40
2019-04-27T12:29:09.502Z,2.90
2019-04-27T12:31:43.873Z,3.33
2019-04-27T12:34:12.018Z,3.37
2019-04-27T12:36:41.375Z,3.20
2019-04-27T12:39:13.161Z,4.43
2019-04-27T12:41:42.576Z,3.70
2019-04-27T12:44:11.858Z,3.73
2019-04-27T12:46:41.326Z,3.73
2019-04-27T12:49:11.004Z,4.10
2019-04-27T12:51:40.271Z,3.60
2019-04-27T12:54:26.224Z,3.60
2019-04-27T12:57:26.375Z,3.83
2019-04-27T12:59:58.228Z,3.30
2019-04-27T13:02:30.562Z,4.40
2019-04-27T13:04:59.996Z,4.10
2019-04-27T13:07:29.390Z,3.80
2019-04-27T13:09:59.873Z,3.87
2019-04-27T13:12:29.227Z,3.77
2019-04-27T13:14:58.715Z,3.93
2019-04-27T13:17:28.780Z,3.83
2019-04-27T13:19:58.927Z,3.60
2019-04-27T13:22:28.376Z,3.70
2019-04-27T13:24:58.185Z,3.37
2019-04-27T13:27:27.971Z,4.27
2019-04-27T13:29:57.560Z,4.40
2019-04-27T13:32:26.942Z,3.77
2019-04-27T13:34:56.772Z,4.23
2019-04-27T13:37:36.623Z,3.83
2019-04-27T13:40:09.369Z,4.07
2019-04-27T13:42:44.119Z,3.53
2019-04-27T13:45:22.676Z,3.33
2019-04-27T13:48:09.908Z,3.67
2019-04-27T13:50:42.906Z,3.57
2019-04-27T13:53:12.274Z,3.77
2019-04-27T13:55:42.105Z,3.53
2019-04-27T13:58:12.071Z,3.37
2019-04-27T14:00:41.942Z,3.43
2019-04-27T14:03:11.272Z,3.20
2019-04-27T14:05:40.730Z,3.90
2019-04-27T14:08:10.123Z,3.77
2019-04-27T14:10:39.492Z,3.13
2019-04-27T14:13:11.016Z,3.50
2019-04-27T14:15:39.950Z,3.03
2019-04-27T14:18:09.320Z,3.53
2019-04-27T14:20:39.008Z,3.60
2019-04-27T14:23:18.640Z,3.50
2019-04-27T14:25:47.769Z,4.23
2019-04-27T14:28:18.325Z,4.53
2019-04-27T14:30:48.636Z,4.30
2019-04-27T14:33:18.575Z,3.80
2019-04-27T14:35:49.836Z,4.37
2019-04-27T14:38:19.185Z,4.13
2019-04-27T14:40:50.296Z,3.60
2019-04-27T14:43:19.963Z,3.93
2019-04-27T14:45:49.343Z,4.13
2019-04-27T14:48:18.733Z,4.23
2019-04-27T14:50:48.507Z,3.83
2019-04-27T14:53:17.923Z,3.70
2019-04-27T14:55:48.996Z,4.10
2019-04-27T14:58:19.114Z,3.57
2019-04-27T15:00:49.862Z,3.77
2019-04-27T15:03:19.359Z,3.83
2019-04-27T15:05:49.743Z,3.70
2019-04-27T15:08:19.953Z,3.53
2019-04-27T15:10:49.438Z,3.50
2019-04-27T15:13:18.925Z,3.40
2019-04-27T15:15:48.314Z,3.07
2019-04-27T15:18:19.594Z,3.10
2019-04-27T15:20:48.745Z,2.80
2019-04-27T15:23:20.046Z,2.80
2019-04-27T15:25:49.972Z,3.20
2019-04-27T15:28:23.320Z,3.40
2019-04-27T15:31:22.438Z,3.67
2019-04-27T15:34:11.178Z,3.23
2019-04-27T15:36:58.425Z,2.80
2019-04-27T15:39:45.636Z,3.53
2019-04-27T15:42:19.473Z,2.77
2019-04-27T15:44:50.025Z,3.50
2019-04-27T15:47:20.260Z,3.67
2019-04-27T15:49:51.113Z,3.97
2019-04-27T15:52:20.808Z,3.10
2019-04-27T15:54:50.496Z,3.70
2019-04-27T15:57:20.884Z,3.43
2019-04-27T15:59:50.283Z,3.77
2019-04-27T16:02:19.730Z,4.17
2019-04-27T16:04:53.204Z,3.17
2019-04-27T16:07:24.863Z,3.10
2019-04-27T16:09:54.478Z,3.40
2019-04-27T16:12:22.604Z,3.10
2019-04-27T16:14:52.011Z,3.03
2019-04-27T16:17:21.472Z,2.73
2019-04-27T16:19:51.385Z,3.10
2019-04-27T16:22:22.641Z,4.20
2019-04-27T16:24:53.559Z,3.53
2019-04-27T16:27:25.835Z,3.17
2019-04-27T16:29:54.447Z,4.40
2019-04-27T16:32:23.809Z,4.63
2019-04-27T16:34:53.243Z,3.10
2019-04-27T16:37:35.559Z,3.60
2019-04-27T16:40:05.510Z,3.33
2019-04-27T16:42:34.927Z,2.93
2019-04-27T16:45:04.753Z,3.73
2019-04-27T16:47:34.070Z,3.87
2019-04-27T16:50:03.521Z,4.03
2019-04-27T16:52:32.888Z,3.57
2019-04-27T16:55:02.314Z,3.30
2019-04-27T16:57:32.525Z,3.03
2019-04-27T17:00:03.758Z,4.47
2019-04-27T17:02:33.159Z,3.63
2019-04-27T17:05:02.461Z,4.60
2019-04-27T17:07:37.759Z,4.27
2019-04-27T17:10:02.946Z,3.60
2019-04-27T17:12:36.123Z,3.47
2019-04-27T17:15:20.954Z,3.70
2019-04-27T17:17:55.926Z,3.67
2019-04-27T17:20:25.301Z,3.57
2019-04-27T17:22:54.723Z,4.07
2019-04-27T17:25:24.174Z,3.43
2019-04-27T17:28:04.087Z,3.90
2019-04-27T17:30:37.239Z,3.23
2019-04-27T17:33:11.910Z,3.57
2019-04-27T17:35:39.505Z,3.13
2019-04-27T17:38:12.446Z,2.87
2019-04-27T17:40:40.616Z,4.03
2019-04-27T17:43:10.604Z,4.03
2019-04-27T17:45:39.998Z,4.37
2019-04-27T17:48:10.787Z,2.90
2019-04-27T17:50:40.601Z,3.40
2019-04-27T17:53:09.982Z,4.17
2019-04-27T17:55:39.343Z,3.80
2019-04-27T17:58:08.810Z,3.17
2019-04-27T18:00:43.099Z,3.90
2019-04-27T18:03:12.607Z,3.70
2019-04-27T18:05:43.833Z,3.67
2019-04-27T18:08:13.632Z,4.00
2019-04-27T18:10:42.503Z,4.13
2019-04-27T18:13:11.840Z,3.40
2019-04-27T18:15:41.151Z,3.67
2019-04-27T18:18:51.052Z,4.50
2019-04-27T18:22:21.123Z,3.87
2019-04-27T18:25:43.588Z,4.43
2019-04-27T18:29:31.341Z,4.33
2019-04-27T18:32:17.747Z,3.77
2019-04-27T18:35:10.256Z,4.17
2019-04-27T18:38:01.915Z,4.17
2019-04-27T18:41:07.279Z,4.90
2019-04-27T18:43:34.164Z,4.53
2019-04-27T18:46:03.457Z,5.77
2019-04-27T18:48:58.470Z,4.10
2019-04-27T18:51:43.074Z,4.83
2019-04-27T18:54:12.358Z,4.20
2019-04-27T18:56:41.886Z,4.00
2019-04-27T18:59:11.277Z,3.87
2019-04-27T19:01:40.712Z,4.57
2019-04-27T19:04:10.261Z,4.90
2019-04-27T19:06:39.673Z,3.90
2019-04-27T19:09:09.313Z,4.07
2019-04-27T19:11:38.682Z,4.17
2019-04-27T19:14:08.431Z,5.67
2019-04-27T19:16:38.410Z,3.47
2019-04-27T19:19:08.710Z,4.17
2019-04-27T19:21:39.247Z,4.23
2019-04-27T19:24:09.012Z,3.87
2019-04-27T19:26:53.922Z,4.53
2019-04-27T19:29:29.339Z,4.07
2019-04-27T19:32:01.754Z,4.53
2019-04-27T19:34:31.188Z,4.13
2019-04-27T19:37:00.548Z,3.90
2019-04-27T19:39:30.061Z,3.63
2019-04-27T19:42:03.461Z,4.23
2019-04-27T19:44:30.473Z,3.40
2019-04-27T19:47:00.325Z,3.80
2019-04-27T19:49:31.635Z,4.00
2019-04-27T19:52:01.410Z,3.40
2019-04-27T19:54:30.789Z,3.07
2019-04-27T19:57:00.181Z,3.67
2019-04-27T19:59:48.969Z,3.93
2019-04-27T20:02:20.605Z,4.40
2019-04-27T20:04:56.568Z,4.37
2019-04-27T20:07:25.961Z,4.13
2019-04-27T20:10:02.488Z,3.40
2019-04-27T20:12:31.893Z,4.93
2019-04-27T20:15:04.842Z,4.17
2019-04-27T20:17:34.327Z,3.57
2019-04-27T20:20:04.244Z,3.97
2019-04-27T20:22:33.670Z,3.53
2019-04-27T20:25:03.125Z,3.57
2019-04-27T20:27:45.312Z,3.10
2019-04-27T20:30:04.729Z,3.27
2019-04-27T20:32:34.032Z,3.40
2019-04-27T20:35:03.416Z,3.67
2019-04-27T20:37:32.759Z,3.13
2019-04-27T20:40:02.247Z,3.87
2019-04-27T20:42:31.743Z,3.73
2019-04-27T20:45:01.921Z,2.93
2019-04-27T20:47:32.454Z,3.43
2019-04-27T20:50:01.927Z,3.67
2019-04-27T20:52:36.662Z,3.33
2019-04-27T20:55:07.224Z,3.47
2019-04-27T20:57:36.607Z,3.33
2019-04-27T21:00:06.124Z,3.80
2019-04-27T21:02:43.460Z,3.30
2019-04-27T21:05:32.598Z,3.30
2019-04-27T21:08:06.689Z,3.30
2019-04-27T21:10:34.778Z,3.23
2019-04-27T21:13:04.622Z,3.17
2019-04-27T21:15:33.994Z,3.50
2019-04-27T21:18:03.381Z,2.67
2019-04-27T21:20:32.768Z,3.40
2019-04-27T21:23:02.034Z,3.20
2019-04-27T21:25:33.610Z,3.70
2019-04-27T21:28:15.295Z,3.93
2019-04-27T21:30:34.064Z,3.17
2019-04-27T21:33:03.349Z,3.43
2019-04-27T21:35:32.748Z,3.10
2019-04-27T21:38:04.498Z,3.07
2019-04-27T21:40:33.092Z,3.40
2019-04-27T21:43:02.365Z,4.13
2019-04-27T21:45:31.866Z,3.43
2019-04-27T21:48:01.329Z,3.70
2019-04-27T21:50:31.409Z,3.43
2019-04-27T21:53:16.536Z,3.20
2019-04-27T21:55:47.453Z,2.60
2019-04-27T21:58:28.326Z,3.10
2019-04-27T22:01:11.188Z,3.43
2019-04-27T22:03:40.414Z,3.30
2019-04-27T22:06:11.567Z,3.40
2019-04-27T22:08:41.078Z,2.67
2019-04-27T22:11:11.716Z,3.07
2019-04-27T22:13:41.144Z,3.53
2019-04-27T22:16:12.656Z,3.37
2019-04-27T22:18:41.771Z,3.00
2019-04-27T22:21:11.522Z,3.47
2019-04-27T22:23:50.888Z,2.90
2019-04-27T22:26:21.335Z,2.90
2019-04-27T22:28:52.052Z,2.87
2019-04-27T22:31:21.559Z,2.70
2019-04-27T22:33:54.388Z,2.90
2019-04-27T22:36:21.824Z,2.90
2019-04-27T22:38:51.706Z,3.17
2019-04-27T22:41:33.164Z,2.87
2019-04-27T22:44:17.323Z,2.13
2019-04-27T22:46:47.744Z,2.50
2019-04-27T22:49:17.125Z,2.53
2019-04-27T22:51:46.475Z,2.70
2019-04-27T22:54:15.846Z,3.10
2019-04-27T22:56:45.889Z,2.70
2019-04-27T22:59:41.422Z,2.80
2019-04-27T23:02:25.342Z,3.07
2019-04-27T23:04:57.888Z,2.17
2019-04-27T23:07:27.254Z,2.93
2019-04-27T23:09:56.628Z,2.33
2019-04-27T23:12:25.979Z,2.23
2019-04-27T23:14:55.357Z,2.57
2019-04-27T23:17:58.832Z,2.30
2019-04-27T23:20:28.307Z,2.30
2019-04-27T23:22:57.647Z,2.60
2019-04-27T23:25:26.947Z,2.03
2019-04-27T23:27:56.231Z,2.63
2019-04-27T23:30:33.771Z,2.10
2019-04-27T23:33:03.143Z,2.50
2019-04-27T23:35:32.964Z,2.23
2019-04-27T23:38:14.795Z,2.67
2019-04-27T23:40:33.292Z,2.43
2019-04-27T23:43:02.658Z,2.43
2019-04-27T23:45:32.119Z,3.00
2019-04-27T23:48:01.386Z,2.33
2019-04-27T23:50:32.353Z,2.57
2019-04-27T23:53:26.489Z,2.50
2019-04-27T23:55:55.870Z,2.40
2019-04-27T23:58:25.245Z,2.00
